sensor_id;sensor_type;location;lat;lon;timestamp;P1;durP1;ratioP1;P2;durP2;ratioP2
75054;SDS011;63636;44.746;10.488;2023-02-01T00:01:20;14.63;;;5.22;;
75054;SDS011;63636;44.746;10.488;2023-02-01T00:03:45;13.23;;;5.53;;
75054;SDS011;63636;44.746;10.488;2023-02-01T00:06:11;13.13;;;5.50;;
75054;SDS011;63636;44.746;10.488;2023-02-01T00:08:36;12.77;;;5.25;;
75054;SDS011;63636;44.746;10.488;2023-02-01T00:11:03;13.43;;;5.65;;
75054;SDS011;63636;44.746;10.488;2023-02-01T00:13:30;14.68;;;5.80;;
75054;SDS011;63636;44.746;10.488;2023-02-01T00:16:02;14.20;;;5.80;;
75054;SDS011;63636;44.746;10.488;2023-02-01T00:18:27;14.95;;;6.05;;
75054;SDS011;63636;44.746;10.488;2023-02-01T00:20:53;13.30;;;5.80;;
75054;SDS011;63636;44.746;10.488;2023-02-01T00:23:18;13.75;;;5.80;;
75054;SDS011;63636;44.746;10.488;2023-02-01T00:25:44;13.93;;;6.07;;
75054;SDS011;63636;44.746;10.488;2023-02-01T00:28:09;13.07;;;5.63;;
75054;SDS011;63636;44.746;10.488;2023-02-01T00:30:35;15.63;;;6.90;;
75054;SDS011;63636;44.746;10.488;2023-02-01T00:33:01;16.13;;;6.55;;
75054;SDS011;63636;44.746;10.488;2023-02-01T00:35:26;15.38;;;6.30;;
75054;SDS011;63636;44.746;10.488;2023-02-01T00:37:52;16.67;;;6.53;;
75054;SDS011;63636;44.746;10.488;2023-02-01T00:40:18;13.93;;;6.25;;
75054;SDS011;63636;44.746;10.488;2023-02-01T00:42:43;14.40;;;6.35;;
75054;SDS011;63636;44.746;10.488;2023-02-01T00:45:09;20.55;;;6.47;;
75054;SDS011;63636;44.746;10.488;2023-02-01T00:47:35;15.00;;;5.55;;
75054;SDS011;63636;44.746;10.488;2023-02-01T00:50:00;15.45;;;6.00;;
75054;SDS011;63636;44.746;10.488;2023-02-01T00:52:28;14.25;;;5.70;;
75054;SDS011;63636;44.746;10.488;2023-02-01T00:54:54;12.38;;;5.35;;
75054;SDS011;63636;44.746;10.488;2023-02-01T00:57:19;12.57;;;4.78;;
75054;SDS011;63636;44.746;10.488;2023-02-01T00:59:45;14.45;;;6.20;;
75054;SDS011;63636;44.746;10.488;2023-02-01T01:02:11;12.38;;;4.82;;
75054;SDS011;63636;44.746;10.488;2023-02-01T01:04:39;13.93;;;5.20;;
75054;SDS011;63636;44.746;10.488;2023-02-01T01:07:05;11.52;;;4.70;;
75054;SDS011;63636;44.746;10.488;2023-02-01T01:09:30;13.93;;;5.07;;
75054;SDS011;63636;44.746;10.488;2023-02-01T01:11:56;13.30;;;4.90;;
75054;SDS011;63636;44.746;10.488;2023-02-01T01:14:22;11.90;;;4.80;;
75054;SDS011;63636;44.746;10.488;2023-02-01T01:16:47;11.23;;;4.80;;
75054;SDS011;63636;44.746;10.488;2023-02-01T01:19:15;12.15;;;5.30;;
75054;SDS011;63636;44.746;10.488;2023-02-01T01:21:41;11.80;;;5.00;;
75054;SDS011;63636;44.746;10.488;2023-02-01T01:24:06;10.73;;;4.85;;
75054;SDS011;63636;44.746;10.488;2023-02-01T01:26:32;10.82;;;4.55;;
75054;SDS011;63636;44.746;10.488;2023-02-01T01:28:58;13.45;;;5.28;;
75054;SDS011;63636;44.746;10.488;2023-02-01T01:31:24;13.05;;;5.10;;
75054;SDS011;63636;44.746;10.488;2023-02-01T01:33:53;11.77;;;4.68;;
75054;SDS011;63636;44.746;10.488;2023-02-01T01:36:19;12.23;;;5.22;;
75054;SDS011;63636;44.746;10.488;2023-02-01T01:38:48;12.48;;;4.50;;
75054;SDS011;63636;44.746;10.488;2023-02-01T01:41:15;11.07;;;4.60;;
75054;SDS011;63636;44.746;10.488;2023-02-01T01:43:53;11.35;;;4.75;;
75054;SDS011;63636;44.746;10.488;2023-02-01T01:46:24;9.30;;;4.00;;
75054;SDS011;63636;44.746;10.488;2023-02-01T01:48:56;11.38;;;4.13;;
75054;SDS011;63636;44.746;10.488;2023-02-01T01:51:24;13.05;;;4.68;;
75054;SDS011;63636;44.746;10.488;2023-02-01T01:53:54;11.40;;;4.63;;
75054;SDS011;63636;44.746;10.488;2023-02-01T01:56:21;9.55;;;3.95;;
75054;SDS011;63636;44.746;10.488;2023-02-01T01:58:46;12.55;;;4.30;;
75054;SDS011;63636;44.746;10.488;2023-02-01T02:01:12;11.13;;;4.10;;
75054;SDS011;63636;44.746;10.488;2023-02-01T02:03:39;10.07;;;4.10;;
75054;SDS011;63636;44.746;10.488;2023-02-01T02:06:09;10.48;;;4.07;;
75054;SDS011;63636;44.746;10.488;2023-02-01T02:08:39;9.55;;;4.10;;
75054;SDS011;63636;44.746;10.488;2023-02-01T02:11:07;11.10;;;3.83;;
75054;SDS011;63636;44.746;10.488;2023-02-01T02:13:38;9.23;;;3.92;;
75054;SDS011;63636;44.746;10.488;2023-02-01T02:18:32;9.80;;;4.13;;
75054;SDS011;63636;44.746;10.488;2023-02-01T02:21:07;10.48;;;4.00;;
75054;SDS011;63636;44.746;10.488;2023-02-01T02:34:10;10.23;;;4.13;;
75054;SDS011;63636;44.746;10.488;2023-02-01T02:37:03;10.75;;;4.18;;
75054;SDS011;63636;44.746;10.488;2023-02-01T02:48:17;11.13;;;4.60;;
75054;SDS011;63636;44.746;10.488;2023-02-01T02:50:29;12.02;;;4.20;;
75054;SDS011;63636;44.746;10.488;2023-02-01T02:53:18;12.10;;;4.60;;
75054;SDS011;63636;44.746;10.488;2023-02-01T02:56:04;13.60;;;5.00;;
75054;SDS011;63636;44.746;10.488;2023-02-01T02:58:49;11.45;;;4.57;;
75054;SDS011;63636;44.746;10.488;2023-02-01T03:01:33;11.30;;;4.75;;
75054;SDS011;63636;44.746;10.488;2023-02-01T03:04:17;13.18;;;4.90;;
75054;SDS011;63636;44.746;10.488;2023-02-01T03:06:46;12.25;;;5.00;;
75054;SDS011;63636;44.746;10.488;2023-02-01T03:09:30;12.60;;;4.95;;
75054;SDS011;63636;44.746;10.488;2023-02-01T03:12:03;10.25;;;4.20;;
75054;SDS011;63636;44.746;10.488;2023-02-01T03:14:50;9.80;;;3.80;;
75054;SDS011;63636;44.746;10.488;2023-02-01T03:17:19;11.38;;;4.28;;
75054;SDS011;63636;44.746;10.488;2023-02-01T03:19:46;11.57;;;4.20;;
75054;SDS011;63636;44.746;10.488;2023-02-01T03:22:17;12.55;;;4.47;;
75054;SDS011;63636;44.746;10.488;2023-02-01T03:24:47;12.00;;;4.38;;
75054;SDS011;63636;44.746;10.488;2023-02-01T03:27:19;13.10;;;4.55;;
75054;SDS011;63636;44.746;10.488;2023-02-01T03:30:29;13.57;;;4.57;;
75054;SDS011;63636;44.746;10.488;2023-02-01T03:32:35;12.30;;;4.93;;
75054;SDS011;63636;44.746;10.488;2023-02-01T03:35:20;12.07;;;4.25;;
75054;SDS011;63636;44.746;10.488;2023-02-01T03:37:49;10.73;;;4.45;;
75054;SDS011;63636;44.746;10.488;2023-02-01T03:40:15;13.20;;;4.40;;
75054;SDS011;63636;44.746;10.488;2023-02-01T03:42:45;11.10;;;4.20;;
75054;SDS011;63636;44.746;10.488;2023-02-01T03:45:14;10.02;;;3.78;;
75054;SDS011;63636;44.746;10.488;2023-02-01T03:47:43;13.13;;;4.50;;
75054;SDS011;63636;44.746;10.488;2023-02-01T03:50:11;11.20;;;4.07;;
75054;SDS011;63636;44.746;10.488;2023-02-01T03:52:48;10.93;;;3.92;;
75054;SDS011;63636;44.746;10.488;2023-02-01T03:55:16;9.30;;;3.97;;
75054;SDS011;63636;44.746;10.488;2023-02-01T03:57:48;10.23;;;4.00;;
75054;SDS011;63636;44.746;10.488;2023-02-01T04:00:18;11.88;;;4.38;;
75054;SDS011;63636;44.746;10.488;2023-02-01T04:02:44;11.98;;;3.50;;
75054;SDS011;63636;44.746;10.488;2023-02-01T04:05:10;11.23;;;4.05;;
75054;SDS011;63636;44.746;10.488;2023-02-01T04:07:38;11.18;;;3.60;;
75054;SDS011;63636;44.746;10.488;2023-02-01T04:10:04;10.93;;;4.20;;
75054;SDS011;63636;44.746;10.488;2023-02-01T04:12:29;11.60;;;3.90;;
75054;SDS011;63636;44.746;10.488;2023-02-01T04:14:55;11.55;;;4.00;;
75054;SDS011;63636;44.746;10.488;2023-02-01T04:17:20;8.32;;;3.45;;
75054;SDS011;63636;44.746;10.488;2023-02-01T04:19:46;8.07;;;3.58;;
75054;SDS011;63636;44.746;10.488;2023-02-01T04:22:12;11.43;;;3.60;;
75054;SDS011;63636;44.746;10.488;2023-02-01T04:24:37;10.40;;;3.53;;
75054;SDS011;63636;44.746;10.488;2023-02-01T04:27:03;8.65;;;3.30;;
75054;SDS011;63636;44.746;10.488;2023-02-01T04:29:28;9.50;;;3.70;;
75054;SDS011;63636;44.746;10.488;2023-02-01T04:31:54;9.20;;;3.30;;
75054;SDS011;63636;44.746;10.488;2023-02-01T04:34:20;8.07;;;3.20;;
75054;SDS011;63636;44.746;10.488;2023-02-01T04:36:48;7.20;;;3.10;;
75054;SDS011;63636;44.746;10.488;2023-02-01T04:39:13;7.47;;;3.25;;
75054;SDS011;63636;44.746;10.488;2023-02-01T04:41:39;10.57;;;3.25;;
75054;SDS011;63636;44.746;10.488;2023-02-01T04:44:04;8.88;;;3.38;;
75054;SDS011;63636;44.746;10.488;2023-02-01T04:46:30;8.55;;;3.15;;
75054;SDS011;63636;44.746;10.488;2023-02-01T04:48:55;8.43;;;3.28;;
75054;SDS011;63636;44.746;10.488;2023-02-01T04:51:21;9.13;;;3.00;;
75054;SDS011;63636;44.746;10.488;2023-02-01T04:53:47;7.60;;;3.38;;
75054;SDS011;63636;44.746;10.488;2023-02-01T04:56:12;12.20;;;4.43;;
75054;SDS011;63636;44.746;10.488;2023-02-01T04:58:38;9.63;;;4.07;;
75054;SDS011;63636;44.746;10.488;2023-02-01T05:01:04;10.55;;;4.28;;
75054;SDS011;63636;44.746;10.488;2023-02-01T05:03:31;11.15;;;4.70;;
75054;SDS011;63636;44.746;10.488;2023-02-01T05:05:57;8.98;;;3.97;;
75054;SDS011;63636;44.746;10.488;2023-02-01T05:08:22;9.88;;;3.95;;
75054;SDS011;63636;44.746;10.488;2023-02-01T05:10:48;11.07;;;4.43;;
75054;SDS011;63636;44.746;10.488;2023-02-01T05:13:14;11.20;;;4.13;;
75054;SDS011;63636;44.746;10.488;2023-02-01T05:15:58;10.02;;;3.70;;
75054;SDS011;63636;44.746;10.488;2023-02-01T05:18:23;8.75;;;3.65;;
75054;SDS011;63636;44.746;10.488;2023-02-01T05:20:49;8.23;;;3.50;;
75054;SDS011;63636;44.746;10.488;2023-02-01T05:23:15;10.55;;;3.67;;
75054;SDS011;63636;44.746;10.488;2023-02-01T05:25:40;9.75;;;3.80;;
75054;SDS011;63636;44.746;10.488;2023-02-01T05:28:06;10.00;;;3.33;;
75054;SDS011;63636;44.746;10.488;2023-02-01T05:30:32;11.80;;;3.97;;
75054;SDS011;63636;44.746;10.488;2023-02-01T05:33:00;8.35;;;3.22;;
75054;SDS011;63636;44.746;10.488;2023-02-01T05:35:26;10.38;;;3.58;;
75054;SDS011;63636;44.746;10.488;2023-02-01T05:37:51;8.40;;;2.90;;
75054;SDS011;63636;44.746;10.488;2023-02-01T05:40:17;10.23;;;3.30;;
75054;SDS011;63636;44.746;10.488;2023-02-01T05:42:42;8.88;;;2.70;;
75054;SDS011;63636;44.746;10.488;2023-02-01T05:45:08;7.53;;;2.67;;
75054;SDS011;63636;44.746;10.488;2023-02-01T05:47:34;6.53;;;2.55;;
75054;SDS011;63636;44.746;10.488;2023-02-01T05:49:59;8.48;;;2.60;;
75054;SDS011;63636;44.746;10.488;2023-02-01T05:52:25;8.07;;;2.90;;
75054;SDS011;63636;44.746;10.488;2023-02-01T05:54:50;8.25;;;2.80;;
75054;SDS011;63636;44.746;10.488;2023-02-01T05:57:17;8.75;;;2.80;;
75054;SDS011;63636;44.746;10.488;2023-02-01T05:59:43;9.35;;;2.92;;
75054;SDS011;63636;44.746;10.488;2023-02-01T06:02:12;7.25;;;2.63;;
75054;SDS011;63636;44.746;10.488;2023-02-01T06:04:38;7.45;;;2.90;;
75054;SDS011;63636;44.746;10.488;2023-02-01T06:07:05;9.02;;;2.92;;
75054;SDS011;63636;44.746;10.488;2023-02-01T06:09:36;8.93;;;3.17;;
75054;SDS011;63636;44.746;10.488;2023-02-01T06:12:02;7.40;;;2.90;;
75054;SDS011;63636;44.746;10.488;2023-02-01T06:14:27;8.60;;;3.20;;
75054;SDS011;63636;44.746;10.488;2023-02-01T06:16:53;9.52;;;3.20;;
75054;SDS011;63636;44.746;10.488;2023-02-01T06:19:19;8.95;;;3.53;;
75054;SDS011;63636;44.746;10.488;2023-02-01T06:21:45;11.32;;;4.10;;
75054;SDS011;63636;44.746;10.488;2023-02-01T06:24:10;9.65;;;3.67;;
75054;SDS011;63636;44.746;10.488;2023-02-01T06:26:36;10.65;;;3.75;;
75054;SDS011;63636;44.746;10.488;2023-02-01T06:29:02;10.60;;;3.58;;
75054;SDS011;63636;44.746;10.488;2023-02-01T06:31:28;10.15;;;3.88;;
75054;SDS011;63636;44.746;10.488;2023-02-01T06:33:53;10.65;;;3.97;;
75054;SDS011;63636;44.746;10.488;2023-02-01T06:36:19;10.48;;;3.63;;
75054;SDS011;63636;44.746;10.488;2023-02-01T06:38:47;8.85;;;3.67;;
75054;SDS011;63636;44.746;10.488;2023-02-01T06:41:12;9.65;;;3.88;;
75054;SDS011;63636;44.746;10.488;2023-02-01T06:43:38;13.77;;;3.97;;
75054;SDS011;63636;44.746;10.488;2023-02-01T06:46:05;11.48;;;3.97;;
75054;SDS011;63636;44.746;10.488;2023-02-01T06:48:30;9.57;;;3.85;;
75054;SDS011;63636;44.746;10.488;2023-02-01T06:50:56;11.52;;;3.17;;
75054;SDS011;63636;44.746;10.488;2023-02-01T06:53:22;8.52;;;3.92;;
75054;SDS011;63636;44.746;10.488;2023-02-01T06:55:54;8.75;;;4.03;;
75054;SDS011;63636;44.746;10.488;2023-02-01T06:58:20;12.88;;;4.05;;
75054;SDS011;63636;44.746;10.488;2023-02-01T07:00:46;12.00;;;4.53;;
75054;SDS011;63636;44.746;10.488;2023-02-01T07:03:11;14.70;;;4.78;;
75054;SDS011;63636;44.746;10.488;2023-02-01T07:05:37;14.73;;;5.68;;
75054;SDS011;63636;44.746;10.488;2023-02-01T07:08:03;10.93;;;4.55;;
75054;SDS011;63636;44.746;10.488;2023-02-01T07:10:28;13.63;;;5.00;;
75054;SDS011;63636;44.746;10.488;2023-02-01T07:12:56;10.55;;;4.43;;
75054;SDS011;63636;44.746;10.488;2023-02-01T07:15:21;10.52;;;4.40;;
75054;SDS011;63636;44.746;10.488;2023-02-01T07:17:47;13.00;;;4.95;;
75054;SDS011;63636;44.746;10.488;2023-02-01T07:20:15;10.13;;;4.47;;
75054;SDS011;63636;44.746;10.488;2023-02-01T07:22:41;21.73;;;8.00;;
75054;SDS011;63636;44.746;10.488;2023-02-01T07:25:09;18.35;;;8.23;;
75054;SDS011;63636;44.746;10.488;2023-02-01T07:27:35;15.90;;;7.07;;
75054;SDS011;63636;44.746;10.488;2023-02-01T07:30:04;17.55;;;6.55;;
75054;SDS011;63636;44.746;10.488;2023-02-01T07:32:30;17.58;;;6.15;;
75054;SDS011;63636;44.746;10.488;2023-02-01T07:34:58;20.92;;;9.98;;
75054;SDS011;63636;44.746;10.488;2023-02-01T07:37:24;15.23;;;5.70;;
75054;SDS011;63636;44.746;10.488;2023-02-01T07:39:50;15.05;;;5.53;;
75054;SDS011;63636;44.746;10.488;2023-02-01T07:42:15;16.40;;;5.25;;
75054;SDS011;63636;44.746;10.488;2023-02-01T07:44:41;13.38;;;5.03;;
75054;SDS011;63636;44.746;10.488;2023-02-01T07:47:07;12.95;;;5.30;;
75054;SDS011;63636;44.746;10.488;2023-02-01T07:49:32;13.30;;;5.63;;
75054;SDS011;63636;44.746;10.488;2023-02-01T07:51:58;15.32;;;6.10;;
75054;SDS011;63636;44.746;10.488;2023-02-01T07:54:23;12.45;;;5.70;;
75054;SDS011;63636;44.746;10.488;2023-02-01T07:56:49;14.15;;;5.80;;
75054;SDS011;63636;44.746;10.488;2023-02-01T07:59:14;16.25;;;6.07;;
75054;SDS011;63636;44.746;10.488;2023-02-01T08:01:41;14.18;;;6.38;;
75054;SDS011;63636;44.746;10.488;2023-02-01T08:04:07;14.55;;;6.50;;
75054;SDS011;63636;44.746;10.488;2023-02-01T08:06:35;13.40;;;6.20;;
75054;SDS011;63636;44.746;10.488;2023-02-01T08:09:00;13.38;;;5.88;;
75054;SDS011;63636;44.746;10.488;2023-02-01T08:11:26;14.35;;;5.90;;
75054;SDS011;63636;44.746;10.488;2023-02-01T08:13:52;15.43;;;6.07;;
75054;SDS011;63636;44.746;10.488;2023-02-01T08:16:18;15.65;;;6.03;;
75054;SDS011;63636;44.746;10.488;2023-02-01T08:18:44;14.23;;;6.65;;
75054;SDS011;63636;44.746;10.488;2023-02-01T08:21:11;16.60;;;6.38;;
75054;SDS011;63636;44.746;10.488;2023-02-01T08:23:37;13.25;;;6.10;;
75054;SDS011;63636;44.746;10.488;2023-02-01T08:26:25;13.63;;;5.32;;
75054;SDS011;63636;44.746;10.488;2023-02-01T08:28:50;12.10;;;5.28;;
75054;SDS011;63636;44.746;10.488;2023-02-01T08:31:17;13.23;;;5.53;;
75054;SDS011;63636;44.746;10.488;2023-02-01T08:33:43;15.93;;;5.60;;
75054;SDS011;63636;44.746;10.488;2023-02-01T08:36:09;14.10;;;6.00;;
75054;SDS011;63636;44.746;10.488;2023-02-01T08:38:36;14.18;;;5.88;;
75054;SDS011;63636;44.746;10.488;2023-02-01T08:41:06;15.40;;;6.38;;
75054;SDS011;63636;44.746;10.488;2023-02-01T08:43:32;17.02;;;5.85;;
75054;SDS011;63636;44.746;10.488;2023-02-01T08:48:57;17.35;;;6.22;;
75054;SDS011;63636;44.746;10.488;2023-02-01T08:51:23;13.77;;;6.20;;
75054;SDS011;63636;44.746;10.488;2023-02-01T08:53:49;15.15;;;6.43;;
75054;SDS011;63636;44.746;10.488;2023-02-01T08:56:15;13.60;;;6.05;;
75054;SDS011;63636;44.746;10.488;2023-02-01T08:58:41;16.92;;;6.35;;
75054;SDS011;63636;44.746;10.488;2023-02-01T09:01:08;13.85;;;6.13;;
75054;SDS011;63636;44.746;10.488;2023-02-01T09:03:34;15.00;;;6.38;;
75054;SDS011;63636;44.746;10.488;2023-02-01T09:06:03;15.27;;;6.97;;
75054;SDS011;63636;44.746;10.488;2023-02-01T09:08:29;19.38;;;7.65;;
75054;SDS011;63636;44.746;10.488;2023-02-01T09:10:58;15.98;;;6.38;;
75054;SDS011;63636;44.746;10.488;2023-02-01T09:13:24;16.13;;;6.78;;
75054;SDS011;63636;44.746;10.488;2023-02-01T09:15:50;18.60;;;7.07;;
75054;SDS011;63636;44.746;10.488;2023-02-01T09:18:16;16.65;;;6.97;;
75054;SDS011;63636;44.746;10.488;2023-02-01T09:20:41;19.20;;;7.63;;
75054;SDS011;63636;44.746;10.488;2023-02-01T09:23:07;18.15;;;7.30;;
75054;SDS011;63636;44.746;10.488;2023-02-01T09:25:32;18.27;;;7.80;;
75054;SDS011;63636;44.746;10.488;2023-02-01T09:27:58;18.60;;;7.82;;
75054;SDS011;63636;44.746;10.488;2023-02-01T09:30:23;19.92;;;8.23;;
75054;SDS011;63636;44.746;10.488;2023-02-01T09:32:49;17.63;;;8.60;;
75054;SDS011;63636;44.746;10.488;2023-02-01T09:35:14;19.33;;;8.23;;
75054;SDS011;63636;44.746;10.488;2023-02-01T09:37:40;18.05;;;8.18;;
75054;SDS011;63636;44.746;10.488;2023-02-01T09:40:06;21.88;;;8.82;;
75054;SDS011;63636;44.746;10.488;2023-02-01T09:42:47;20.92;;;8.95;;
75054;SDS011;63636;44.746;10.488;2023-02-01T09:48:01;20.35;;;9.07;;
75054;SDS011;63636;44.746;10.488;2023-02-01T09:50:35;22.25;;;9.55;;
75054;SDS011;63636;44.746;10.488;2023-02-01T09:55:47;24.48;;;11.00;;
75054;SDS011;63636;44.746;10.488;2023-02-01T09:58:21;27.25;;;12.70;;
75054;SDS011;63636;44.746;10.488;2023-02-01T10:00:52;27.02;;;12.90;;
75054;SDS011;63636;44.746;10.488;2023-02-01T10:03:18;32.08;;;14.85;;
75054;SDS011;63636;44.746;10.488;2023-02-01T10:10:41;47.88;;;22.48;;
75054;SDS011;63636;44.746;10.488;2023-02-01T10:13:13;46.55;;;22.10;;
75054;SDS011;63636;44.746;10.488;2023-02-01T10:18:23;41.83;;;22.02;;
75054;SDS011;63636;44.746;10.488;2023-02-01T10:28:52;41.85;;;21.20;;
75054;SDS011;63636;44.746;10.488;2023-02-01T10:31:20;41.67;;;20.98;;
75054;SDS011;63636;44.746;10.488;2023-02-01T10:33:57;42.80;;;20.85;;
75054;SDS011;63636;44.746;10.488;2023-02-01T10:36:38;38.45;;;19.10;;
75054;SDS011;63636;44.746;10.488;2023-02-01T10:39:05;36.58;;;17.17;;
75054;SDS011;63636;44.746;10.488;2023-02-01T10:41:36;39.45;;;18.58;;
75054;SDS011;63636;44.746;10.488;2023-02-01T10:44:06;39.42;;;18.23;;
75054;SDS011;63636;44.746;10.488;2023-02-01T10:46:33;31.58;;;17.40;;
75054;SDS011;63636;44.746;10.488;2023-02-01T10:49:00;32.75;;;16.95;;
75054;SDS011;63636;44.746;10.488;2023-02-01T10:51:34;37.05;;;17.40;;
75054;SDS011;63636;44.746;10.488;2023-02-01T10:54:09;32.05;;;16.70;;
75054;SDS011;63636;44.746;10.488;2023-02-01T10:56:37;34.10;;;16.05;;
75054;SDS011;63636;44.746;10.488;2023-02-01T10:59:03;35.05;;;16.88;;
75054;SDS011;63636;44.746;10.488;2023-02-01T11:01:31;36.42;;;17.35;;
75054;SDS011;63636;44.746;10.488;2023-02-01T11:03:59;33.10;;;17.50;;
75054;SDS011;63636;44.746;10.488;2023-02-01T11:06:27;34.90;;;17.58;;
75054;SDS011;63636;44.746;10.488;2023-02-01T11:08:54;34.80;;;17.48;;
75054;SDS011;63636;44.746;10.488;2023-02-01T11:11:20;34.35;;;18.20;;
75054;SDS011;63636;44.746;10.488;2023-02-01T11:13:53;33.17;;;17.30;;
75054;SDS011;63636;44.746;10.488;2023-02-01T11:18:44;33.15;;;17.15;;
75054;SDS011;63636;44.746;10.488;2023-02-01T11:21:10;36.83;;;17.67;;
75054;SDS011;63636;44.746;10.488;2023-02-01T11:23:43;32.33;;;16.88;;
75054;SDS011;63636;44.746;10.488;2023-02-01T11:28:35;32.38;;;15.00;;
75054;SDS011;63636;44.746;10.488;2023-02-01T11:31:04;32.10;;;15.38;;
75054;SDS011;63636;44.746;10.488;2023-02-01T11:33:31;33.53;;;17.20;;
75054;SDS011;63636;44.746;10.488;2023-02-01T11:36:10;34.70;;;17.25;;
75054;SDS011;63636;44.746;10.488;2023-02-01T11:38:38;28.88;;;15.40;;
75054;SDS011;63636;44.746;10.488;2023-02-01T11:41:11;32.28;;;14.70;;
75054;SDS011;63636;44.746;10.488;2023-02-01T11:46:08;30.13;;;14.57;;
75054;SDS011;63636;44.746;10.488;2023-02-01T11:48:42;28.33;;;14.52;;
75054;SDS011;63636;44.746;10.488;2023-02-01T11:51:31;26.10;;;14.15;;
75054;SDS011;63636;44.746;10.488;2023-02-01T11:56:48;31.38;;;14.23;;
75054;SDS011;63636;44.746;10.488;2023-02-01T12:06:53;29.98;;;15.48;;
75054;SDS011;63636;44.746;10.488;2023-02-01T12:14:35;26.65;;;14.65;;
75054;SDS011;63636;44.746;10.488;2023-02-01T12:19:35;28.25;;;14.07;;
75054;SDS011;63636;44.746;10.488;2023-02-01T12:22:11;29.83;;;14.95;;
75054;SDS011;63636;44.746;10.488;2023-02-01T12:27:32;30.48;;;15.05;;
75054;SDS011;63636;44.746;10.488;2023-02-01T12:43:04;29.55;;;15.45;;
75054;SDS011;63636;44.746;10.488;2023-02-01T12:45:33;28.25;;;15.02;;
75054;SDS011;63636;44.746;10.488;2023-02-01T12:48:03;30.20;;;14.77;;
75054;SDS011;63636;44.746;10.488;2023-02-01T12:50:43;30.00;;;15.13;;
75054;SDS011;63636;44.746;10.488;2023-02-01T12:56:03;33.05;;;14.90;;
75054;SDS011;63636;44.746;10.488;2023-02-01T13:06:37;32.97;;;16.63;;
75054;SDS011;63636;44.746;10.488;2023-02-01T13:11:40;30.98;;;16.65;;
75054;SDS011;63636;44.746;10.488;2023-02-01T13:14:11;31.33;;;15.88;;
75054;SDS011;63636;44.746;10.488;2023-02-01T13:16:48;29.83;;;16.02;;
75054;SDS011;63636;44.746;10.488;2023-02-01T13:19:24;31.15;;;16.65;;
75054;SDS011;63636;44.746;10.488;2023-02-01T13:21:55;30.05;;;16.55;;
75054;SDS011;63636;44.746;10.488;2023-02-01T13:24:29;31.83;;;15.20;;
75054;SDS011;63636;44.746;10.488;2023-02-01T13:26:56;33.33;;;16.42;;
75054;SDS011;63636;44.746;10.488;2023-02-01T13:29:28;30.02;;;15.30;;
75054;SDS011;63636;44.746;10.488;2023-02-01T13:32:09;28.92;;;15.27;;
75054;SDS011;63636;44.746;10.488;2023-02-01T13:34:56;32.05;;;15.00;;
75054;SDS011;63636;44.746;10.488;2023-02-01T13:42:53;29.98;;;15.45;;
75054;SDS011;63636;44.746;10.488;2023-02-01T13:45:32;33.85;;;16.05;;
75054;SDS011;63636;44.746;10.488;2023-02-01T13:48:00;31.58;;;16.25;;
75054;SDS011;63636;44.746;10.488;2023-02-01T13:50:31;30.65;;;15.93;;
75054;SDS011;63636;44.746;10.488;2023-02-01T13:53:26;27.02;;;15.15;;
75054;SDS011;63636;44.746;10.488;2023-02-01T13:58:20;32.50;;;16.73;;
75054;SDS011;63636;44.746;10.488;2023-02-01T14:00:47;30.80;;;16.33;;
75054;SDS011;63636;44.746;10.488;2023-02-01T14:04:04;34.00;;;16.50;;
75054;SDS011;63636;44.746;10.488;2023-02-01T14:09:10;32.17;;;16.77;;
75054;SDS011;63636;44.746;10.488;2023-02-01T14:11:44;31.75;;;15.75;;
75054;SDS011;63636;44.746;10.488;2023-02-01T14:19:36;31.80;;;16.10;;
75054;SDS011;63636;44.746;10.488;2023-02-01T14:24:39;30.60;;;15.98;;
75054;SDS011;63636;44.746;10.488;2023-02-01T14:29:37;33.72;;;16.95;;
75054;SDS011;63636;44.746;10.488;2023-02-01T14:32:05;31.98;;;17.50;;
75054;SDS011;63636;44.746;10.488;2023-02-01T14:39:55;37.13;;;17.23;;
75054;SDS011;63636;44.746;10.488;2023-02-01T14:44:48;31.50;;;17.15;;
75054;SDS011;63636;44.746;10.488;2023-02-01T14:49:50;30.98;;;17.40;;
75054;SDS011;63636;44.746;10.488;2023-02-01T14:52:19;30.90;;;17.30;;
75054;SDS011;63636;44.746;10.488;2023-02-01T14:54:46;37.38;;;17.60;;
75054;SDS011;63636;44.746;10.488;2023-02-01T14:57:15;33.72;;;17.13;;
75054;SDS011;63636;44.746;10.488;2023-02-01T14:59:42;34.25;;;17.40;;
75054;SDS011;63636;44.746;10.488;2023-02-01T15:02:16;33.78;;;17.35;;
75054;SDS011;63636;44.746;10.488;2023-02-01T15:04:43;32.78;;;17.17;;
75054;SDS011;63636;44.746;10.488;2023-02-01T15:07:09;35.80;;;17.92;;
75054;SDS011;63636;44.746;10.488;2023-02-01T15:12:03;34.63;;;18.13;;
75054;SDS011;63636;44.746;10.488;2023-02-01T15:14:33;33.47;;;17.48;;
75054;SDS011;63636;44.746;10.488;2023-02-01T15:16:59;34.88;;;17.42;;
75054;SDS011;63636;44.746;10.488;2023-02-01T15:19:26;34.65;;;17.27;;
75054;SDS011;63636;44.746;10.488;2023-02-01T15:21:53;34.38;;;17.60;;
75054;SDS011;63636;44.746;10.488;2023-02-01T15:24:20;31.80;;;16.67;;
75054;SDS011;63636;44.746;10.488;2023-02-01T15:26:45;34.90;;;17.30;;
75054;SDS011;63636;44.746;10.488;2023-02-01T15:29:12;32.15;;;16.98;;
75054;SDS011;63636;44.746;10.488;2023-02-01T15:31:43;31.90;;;17.35;;
75054;SDS011;63636;44.746;10.488;2023-02-01T15:34:10;35.45;;;17.58;;
75054;SDS011;63636;44.746;10.488;2023-02-01T15:36:36;34.10;;;18.27;;
75054;SDS011;63636;44.746;10.488;2023-02-01T15:41:49;34.45;;;17.77;;
75054;SDS011;63636;44.746;10.488;2023-02-01T15:44:18;37.75;;;17.70;;
75054;SDS011;63636;44.746;10.488;2023-02-01T15:46:45;31.92;;;17.60;;
75054;SDS011;63636;44.746;10.488;2023-02-01T15:51:43;39.15;;;18.23;;
75054;SDS011;63636;44.746;10.488;2023-02-01T15:54:17;34.90;;;18.52;;
75054;SDS011;63636;44.746;10.488;2023-02-01T15:56:49;31.67;;;17.20;;
75054;SDS011;63636;44.746;10.488;2023-02-01T15:59:22;39.67;;;18.73;;
75054;SDS011;63636;44.746;10.488;2023-02-01T16:01:49;35.53;;;18.25;;
75054;SDS011;63636;44.746;10.488;2023-02-01T16:04:27;33.83;;;17.35;;
75054;SDS011;63636;44.746;10.488;2023-02-01T16:06:59;39.35;;;18.88;;
75054;SDS011;63636;44.746;10.488;2023-02-01T16:09:40;37.97;;;18.77;;
75054;SDS011;63636;44.746;10.488;2023-02-01T16:12:22;33.50;;;19.17;;
75054;SDS011;63636;44.746;10.488;2023-02-01T16:14:49;37.33;;;18.90;;
75054;SDS011;63636;44.746;10.488;2023-02-01T16:17:14;40.05;;;20.00;;
75054;SDS011;63636;44.746;10.488;2023-02-01T16:19:40;39.08;;;19.73;;
75054;SDS011;63636;44.746;10.488;2023-02-01T16:22:05;38.22;;;19.15;;
75054;SDS011;63636;44.746;10.488;2023-02-01T16:24:31;42.28;;;19.45;;
75054;SDS011;63636;44.746;10.488;2023-02-01T16:26:58;39.47;;;18.17;;
75054;SDS011;63636;44.746;10.488;2023-02-01T16:29:25;39.17;;;18.73;;
75054;SDS011;63636;44.746;10.488;2023-02-01T16:31:51;38.47;;;18.30;;
75054;SDS011;63636;44.746;10.488;2023-02-01T16:34:17;39.17;;;19.90;;
75054;SDS011;63636;44.746;10.488;2023-02-01T16:36:43;37.83;;;18.75;;
75054;SDS011;63636;44.746;10.488;2023-02-01T16:39:12;37.67;;;19.23;;
75054;SDS011;63636;44.746;10.488;2023-02-01T16:41:42;39.83;;;19.35;;
75054;SDS011;63636;44.746;10.488;2023-02-01T16:44:11;35.15;;;19.15;;
75054;SDS011;63636;44.746;10.488;2023-02-01T16:46:40;43.67;;;21.95;;